createdAt,value
2022-10-11T00:01:41.291Z,1.60
2022-10-11T00:04:07.889Z,1.83
2022-10-11T00:06:34.459Z,1.70
2022-10-11T00:09:00.875Z,1.48
2022-10-11T00:11:27.353Z,1.65
2022-10-11T00:13:53.736Z,1.80
2022-10-11T00:16:20.307Z,1.42
2022-10-11T00:18:46.789Z,1.30
2022-10-11T00:21:14.731Z,1.80
2022-10-11T00:23:42.370Z,1.95
2022-10-11T00:26:10.914Z,2.40
2022-10-11T00:28:38.066Z,2.75
2022-10-11T00:31:10.401Z,2.83
2022-10-11T00:33:36.853Z,2.83
2022-10-11T00:36:04.164Z,3.13
2022-10-11T00:38:32.104Z,2.77
2022-10-11T00:40:59.992Z,2.80
2022-10-11T00:43:28.696Z,3.38
2022-10-11T00:45:58.218Z,2.38
2022-10-11T00:48:30.822Z,1.80
2022-10-11T00:50:59.751Z,1.60
2022-10-11T00:53:28.334Z,1.48
2022-10-11T00:56:03.188Z,1.88
2022-10-11T00:58:30.698Z,1.30
2022-10-11T01:00:57.917Z,1.92
2022-10-11T01:03:26.796Z,1.93
2022-10-11T01:05:53.523Z,1.88
2022-10-11T01:08:20.788Z,1.75
2022-10-11T01:10:47.646Z,1.77
2022-10-11T01:13:26.317Z,1.90
2022-10-11T01:16:08.562Z,1.67
2022-10-11T01:18:38.848Z,1.52
2022-10-11T01:21:21.602Z,1.73
2022-10-11T01:24:38.188Z,1.90
2022-10-11T01:27:38.362Z,1.70
2022-10-11T01:30:21.246Z,1.30
2022-10-11T01:32:56.009Z,1.65
2022-10-11T01:35:36.954Z,1.75
2022-10-11T01:38:34.175Z,1.30
2022-10-11T01:41:16.294Z,1.77
2022-10-11T01:43:44.075Z,1.27
2022-10-11T01:46:11.700Z,1.20
2022-10-11T01:48:52.790Z,1.75
2022-10-11T01:51:28.328Z,1.77
2022-10-11T01:54:11.454Z,1.60
2022-10-11T01:56:56.708Z,1.80
2022-10-11T01:59:28.522Z,1.58
2022-10-11T02:02:03.356Z,1.30
2022-10-11T02:04:55.158Z,1.15
2022-10-11T02:08:02.496Z,1.15
2022-10-11T02:10:28.875Z,1.63
2022-10-11T02:13:01.926Z,1.13
2022-10-11T02:15:31.629Z,1.20
2022-10-11T02:18:02.025Z,1.27
2022-10-11T02:20:31.964Z,1.35
2022-10-11T02:23:07.490Z,1.10
2022-10-11T02:25:36.176Z,1.60
2022-10-11T02:28:07.248Z,1.30
2022-10-11T02:30:35.795Z,1.40
2022-10-11T02:33:05.648Z,1.30
2022-10-11T02:35:38.427Z,1.40
2022-10-11T02:38:17.734Z,1.55
2022-10-11T02:40:48.423Z,1.88
2022-10-11T02:43:25.096Z,1.48
2022-10-11T02:45:56.551Z,1.88
2022-10-11T02:48:25.216Z,1.47
2022-10-11T02:50:53.530Z,1.63
2022-10-11T02:53:21.814Z,1.50
2022-10-11T02:55:50.286Z,1.50
2022-10-11T02:58:16.769Z,1.75
2022-10-11T03:00:43.819Z,1.80
2022-10-11T03:03:10.269Z,1.70
2022-10-11T03:05:40.674Z,1.30
2022-10-11T03:08:12.230Z,1.13
2022-10-11T03:10:39.948Z,1.30
2022-10-11T03:13:06.707Z,1.60
2022-10-11T03:15:33.251Z,1.45
2022-10-11T03:17:59.863Z,1.35
2022-10-11T03:20:26.575Z,1.35
2022-10-11T03:22:53.111Z,1.00
2022-10-11T03:25:19.632Z,1.30
2022-10-11T03:27:46.041Z,1.70
2022-10-11T03:30:17.321Z,1.55
2022-10-11T03:32:44.586Z,1.60
2022-10-11T03:35:11.032Z,1.50
2022-10-11T03:37:37.551Z,1.90
2022-10-11T03:40:06.017Z,1.35
2022-10-11T03:42:32.480Z,1.70
2022-10-11T03:44:59.967Z,1.33
2022-10-11T03:47:26.363Z,1.30
2022-10-11T03:49:53.195Z,1.70
2022-10-11T03:52:19.604Z,1.30
2022-10-11T03:54:46.027Z,1.48
2022-10-11T03:57:12.520Z,1.65
2022-10-11T03:59:38.913Z,1.58
2022-10-11T04:02:05.338Z,2.03
2022-10-11T04:04:31.916Z,1.63
2022-10-11T04:06:58.372Z,1.35
2022-10-11T04:09:24.783Z,1.40
2022-10-11T04:11:51.224Z,1.30
2022-10-11T04:14:17.673Z,1.40
2022-10-11T04:16:44.118Z,1.50
2022-10-11T04:19:10.562Z,1.20
2022-10-11T04:21:37.153Z,1.10
2022-10-11T04:24:04.102Z,1.65
2022-10-11T04:26:30.605Z,1.30
2022-10-11T04:28:57.180Z,1.30
2022-10-11T04:31:23.922Z,1.13
2022-10-11T04:33:50.472Z,1.40
2022-10-11T04:36:16.959Z,1.42
2022-10-11T04:38:43.366Z,1.43
2022-10-11T04:41:12.509Z,1.33
2022-10-11T04:43:39.557Z,1.17
2022-10-11T04:46:07.106Z,2.20
2022-10-11T04:48:33.986Z,1.65
2022-10-11T04:51:00.458Z,2.00
2022-10-11T04:53:26.883Z,1.80
2022-10-11T04:56:02.748Z,1.20
2022-10-11T04:58:30.841Z,1.55
2022-10-11T05:00:58.013Z,1.88
2022-10-11T05:03:25.371Z,1.93
2022-10-11T05:05:52.843Z,1.80
2022-10-11T05:08:19.747Z,2.22
2022-10-11T05:11:06.218Z,1.90
2022-10-11T05:13:34.302Z,1.95
2022-10-11T05:16:01.571Z,2.00
2022-10-11T05:18:28.795Z,2.50
2022-10-11T05:21:01.053Z,2.35
2022-10-11T05:23:29.293Z,2.03
2022-10-11T05:25:55.829Z,2.42
2022-10-11T05:28:22.545Z,1.57
2022-10-11T05:30:49.025Z,1.35
2022-10-11T05:33:15.932Z,1.70
2022-10-11T05:35:42.704Z,1.48
2022-10-11T05:38:09.196Z,2.13
2022-10-11T05:40:37.154Z,1.67
2022-10-11T05:43:04.326Z,2.45
2022-10-11T05:45:32.900Z,2.10
2022-10-11T05:47:59.637Z,1.80
2022-10-11T05:50:26.077Z,1.58
2022-10-11T05:52:52.487Z,2.17
2022-10-11T05:55:18.930Z,1.88
2022-10-11T05:57:45.408Z,1.48
2022-10-11T06:00:12.215Z,1.55
2022-10-11T06:02:38.865Z,1.50
2022-10-11T06:05:05.646Z,1.80
2022-10-11T06:07:32.547Z,1.60
2022-10-11T06:09:59.098Z,1.50
2022-10-11T06:12:25.498Z,1.17
2022-10-11T06:14:51.890Z,1.73
2022-10-11T06:17:18.418Z,1.80
2022-10-11T06:19:44.845Z,1.63
2022-10-11T06:22:12.421Z,2.13
2022-10-11T06:24:38.907Z,1.95
2022-10-11T06:27:05.382Z,1.90
2022-10-11T06:29:31.831Z,1.90
2022-10-11T06:31:58.571Z,1.23
2022-10-11T06:34:25.079Z,1.83
2022-10-11T06:36:51.883Z,1.85
2022-10-11T06:39:18.410Z,1.70
2022-10-11T06:41:44.902Z,1.77
2022-10-11T06:44:14.274Z,1.35
2022-10-11T06:46:41.259Z,2.10
2022-10-11T06:49:07.957Z,2.00
2022-10-11T06:51:35.705Z,2.00
2022-10-11T06:54:02.434Z,1.47
2022-10-11T06:56:31.213Z,1.63
2022-10-11T06:58:59.324Z,2.10
2022-10-11T07:01:27.176Z,1.67
2022-10-11T07:03:55.670Z,2.00
2022-10-11T07:06:25.318Z,2.10
2022-10-11T07:08:52.777Z,1.95
2022-10-11T07:11:22.645Z,2.00
2022-10-11T07:13:55.047Z,2.08
2022-10-11T07:16:22.623Z,2.53
2022-10-11T07:18:57.243Z,2.30
2022-10-11T07:21:27.351Z,1.95
2022-10-11T07:23:53.737Z,1.98
2022-10-11T07:26:20.225Z,1.70
2022-10-11T07:28:47.238Z,2.22
2022-10-11T07:31:16.963Z,2.37
2022-10-11T07:33:43.577Z,2.20
2022-10-11T07:36:11.371Z,1.90
2022-10-11T07:38:42.512Z,2.22
2022-10-11T07:41:09.643Z,2.50
2022-10-11T07:43:37.335Z,1.90
2022-10-11T07:46:05.371Z,2.38
2022-10-11T07:48:34.086Z,2.40
2022-10-11T07:51:07.856Z,2.47
2022-10-11T07:53:45.943Z,2.58
2022-10-11T07:56:14.866Z,2.90
2022-10-11T07:58:42.525Z,2.50
2022-10-11T08:01:10.353Z,2.50
2022-10-11T08:03:38.077Z,3.08
2022-10-11T08:06:07.792Z,2.38
2022-10-11T08:08:34.987Z,3.47
2022-10-11T08:11:01.837Z,2.58
2022-10-11T08:13:28.749Z,2.25
2022-10-11T08:15:55.466Z,2.58
2022-10-11T08:18:21.988Z,2.67
2022-10-11T08:20:48.835Z,2.37
2022-10-11T08:23:17.037Z,2.17
2022-10-11T08:25:46.613Z,2.83
2022-10-11T08:28:16.952Z,2.13
2022-10-11T08:30:51.291Z,1.90
2022-10-11T08:33:19.232Z,2.53
2022-10-11T08:35:45.974Z,2.13
2022-10-11T08:38:12.748Z,2.17
2022-10-11T08:40:49.390Z,2.40
2022-10-11T08:43:29.373Z,1.88
2022-10-11T08:45:59.797Z,1.70
2022-10-11T08:48:32.592Z,2.20
2022-10-11T08:50:59.603Z,1.83
2022-10-11T08:53:51.558Z,1.75
2022-10-11T08:56:20.188Z,2.00
2022-10-11T08:58:53.972Z,1.30
2022-10-11T09:01:25.889Z,1.30
2022-10-11T09:03:53.284Z,1.52
2022-10-11T09:06:34.818Z,1.50
2022-10-11T09:09:07.594Z,1.85
2022-10-11T09:11:40.110Z,2.13
2022-10-11T09:14:12.441Z,1.30
2022-10-11T09:16:54.198Z,2.03
2022-10-11T09:19:52.074Z,1.45
2022-10-11T09:22:42.581Z,2.15
2022-10-11T09:25:28.503Z,1.70
2022-10-11T09:28:33.337Z,1.70
2022-10-11T09:31:00.146Z,1.20
2022-10-11T09:33:37.053Z,1.95
2022-10-11T09:36:16.393Z,0.88
2022-10-11T09:39:06.523Z,0.97
2022-10-11T09:41:58.901Z,1.40
2022-10-11T09:44:28.032Z,0.70
2022-10-11T09:46:56.697Z,1.25
2022-10-11T09:49:29.295Z,1.00
2022-10-11T09:51:58.829Z,0.97
2022-10-11T09:54:44.494Z,1.42
2022-10-11T09:57:22.044Z,1.40
2022-10-11T10:00:22.201Z,1.00
2022-10-11T10:02:53.647Z,0.93
2022-10-11T10:05:21.927Z,1.00
2022-10-11T10:08:09.361Z,1.25
2022-10-11T10:10:59.900Z,1.10
2022-10-11T10:13:55.013Z,0.98
2022-10-11T10:16:33.755Z,0.88
2022-10-11T10:19:25.311Z,1.13
2022-10-11T10:21:54.566Z,1.17
2022-10-11T10:24:25.596Z,1.52
2022-10-11T10:27:22.596Z,1.05
2022-10-11T10:30:07.621Z,0.82
2022-10-11T10:32:43.760Z,0.90
2022-10-11T10:35:49.416Z,1.67
2022-10-11T10:38:29.532Z,1.08
2022-10-11T10:41:01.345Z,0.80
2022-10-11T10:43:36.684Z,1.40
2022-10-11T10:46:40.314Z,1.53
2022-10-11T10:52:05.957Z,1.08
2022-10-11T10:54:53.267Z,1.23
2022-10-11T10:57:25.250Z,1.60
2022-10-11T11:00:10.678Z,1.53
2022-10-11T11:03:01.646Z,1.10
2022-10-11T11:05:48.317Z,0.80
2022-10-11T11:08:37.474Z,1.00
2022-10-11T11:11:21.490Z,1.38
2022-10-11T11:14:04.004Z,1.10
2022-10-11T11:16:53.907Z,1.05
2022-10-11T11:19:23.093Z,1.05
2022-10-11T11:22:27.088Z,1.15
2022-10-11T11:25:12.652Z,1.23
2022-10-11T11:27:57.968Z,0.97
2022-10-11T11:30:43.557Z,1.00
2022-10-11T11:33:52.071Z,1.38
2022-10-11T11:36:26.294Z,1.23
2022-10-11T11:38:58.619Z,1.23
2022-10-11T11:41:38.184Z,0.90
2022-10-11T11:44:30.002Z,0.70
2022-10-11T11:47:10.605Z,0.90
2022-10-11T11:49:41.227Z,0.88
2022-10-11T11:52:14.012Z,0.90
2022-10-11T11:54:49.589Z,0.80
2022-10-11T11:57:31.531Z,0.77
2022-10-11T12:00:15.905Z,1.02
2022-10-11T12:03:03.594Z,0.93
2022-10-11T12:05:33.900Z,0.93
2022-10-11T12:08:07.214Z,0.80
2022-10-11T12:10:54.471Z,0.82
2022-10-11T12:13:42.405Z,1.35
2022-10-11T12:16:12.469Z,1.00
2022-10-11T12:18:52.586Z,0.73
2022-10-11T12:21:45.378Z,0.93
2022-10-11T12:24:23.332Z,1.38
2022-10-11T12:26:54.797Z,0.82
2022-10-11T12:29:28.533Z,0.98
2022-10-11T12:31:58.447Z,0.88
2022-10-11T12:34:34.255Z,1.20
2022-10-11T12:37:20.692Z,0.80
2022-10-11T12:39:58.324Z,0.70
2022-10-11T12:42:33.900Z,1.90
2022-10-11T12:45:12.996Z,0.80
2022-10-11T12:48:01.430Z,0.80
2022-10-11T12:50:54.672Z,1.05
2022-10-11T12:53:42.787Z,0.63
2022-10-11T12:56:14.162Z,0.93
2022-10-11T12:58:46.383Z,2.42
2022-10-11T13:01:17.501Z,3.13
2022-10-11T13:03:52.989Z,1.13
2022-10-11T13:06:26.882Z,1.00
2022-10-11T13:09:17.407Z,0.80
2022-10-11T13:11:56.062Z,1.10
2022-10-11T13:14:25.716Z,0.80
2022-10-11T13:17:14.973Z,1.23
2022-10-11T13:22:20.499Z,0.95
2022-10-11T13:24:47.073Z,1.33
2022-10-11T13:27:22.966Z,1.37
2022-10-11T13:29:51.227Z,1.55
2022-10-11T13:32:23.787Z,1.60
2022-10-11T13:37:25.742Z,1.10
2022-10-11T13:39:54.030Z,1.07
2022-10-11T13:42:27.662Z,1.73
2022-10-11T13:44:54.355Z,0.70
2022-10-11T13:47:26.728Z,0.75
2022-10-11T13:50:15.448Z,1.13
2022-10-11T13:52:56.097Z,1.00
2022-10-11T13:55:29.469Z,1.08
2022-10-11T13:57:58.325Z,1.00
2022-10-11T14:00:29.567Z,0.85
2022-10-11T14:03:19.087Z,1.45
2022-10-11T14:05:57.576Z,1.00
2022-10-11T14:08:42.314Z,1.00
2022-10-11T14:11:11.542Z,1.13
2022-10-11T14:13:46.786Z,1.33
2022-10-11T14:16:29.042Z,1.13
2022-10-11T14:18:58.365Z,0.73
2022-10-11T14:21:30.763Z,1.60
2022-10-11T14:24:05.790Z,1.17
2022-10-11T14:26:35.510Z,1.48
2022-10-11T14:29:06.918Z,1.00
2022-10-11T14:31:36.781Z,0.80
2022-10-11T14:34:05.834Z,1.10
2022-10-11T14:36:32.391Z,1.30
2022-10-11T14:38:58.811Z,1.10
2022-10-11T14:41:25.264Z,0.88
2022-10-11T14:43:51.802Z,0.80
2022-10-11T14:46:26.692Z,1.13
2022-10-11T14:48:56.321Z,1.58
2022-10-11T14:51:28.183Z,1.10
2022-10-11T14:53:54.722Z,1.40
2022-10-11T14:56:21.933Z,1.17
2022-10-11T14:58:48.963Z,1.90
2022-10-11T15:01:17.211Z,1.00
2022-10-11T15:03:43.827Z,1.23
2022-10-11T15:06:22.738Z,0.90
2022-10-11T15:08:49.271Z,1.00
2022-10-11T15:11:18.190Z,1.20
2022-10-11T15:13:45.856Z,1.58
2022-10-11T15:16:14.901Z,1.17
2022-10-11T15:18:41.952Z,1.67
2022-10-11T15:21:13.992Z,1.33
2022-10-11T15:23:40.413Z,1.38
2022-10-11T15:26:07.071Z,2.10
2022-10-11T15:28:33.986Z,1.30
2022-10-11T15:31:00.708Z,1.55
2022-10-11T15:33:27.214Z,1.70
2022-10-11T15:35:53.673Z,2.08
2022-10-11T15:38:24.143Z,2.40
2022-10-11T15:40:51.608Z,1.83
2022-10-11T15:43:24.213Z,1.88
2022-10-11T15:45:51.488Z,1.50
2022-10-11T15:48:20.523Z,1.17
2022-10-11T15:50:47.486Z,1.27
2022-10-11T15:53:15.238Z,1.00
2022-10-11T15:55:44.792Z,1.63
2022-10-11T15:58:15.481Z,1.10
2022-10-11T16:00:43.031Z,1.40
2022-10-11T16:03:12.089Z,1.40
2022-10-11T16:05:38.983Z,1.10
2022-10-11T16:08:05.522Z,1.83
2022-10-11T16:10:32.326Z,1.10
2022-10-11T16:12:58.891Z,1.25
2022-10-11T16:15:25.333Z,1.08
2022-10-11T16:17:51.900Z,1.20
2022-10-11T16:20:22.291Z,1.40
2022-10-11T16:22:49.685Z,1.30
2022-10-11T16:25:17.059Z,1.42
2022-10-11T16:27:44.191Z,0.90
2022-10-11T16:30:15.452Z,1.40
2022-10-11T16:32:42.042Z,1.00
2022-10-11T16:35:09.077Z,1.70
2022-10-11T16:37:36.293Z,1.48
2022-10-11T16:40:03.270Z,1.58
2022-10-11T16:42:29.697Z,1.53
2022-10-11T16:44:56.548Z,1.55
2022-10-11T16:47:23.008Z,1.13
2022-10-11T16:49:49.617Z,0.95
2022-10-11T16:52:16.419Z,1.50
2022-10-11T16:54:44.765Z,2.17
2022-10-11T16:57:12.384Z,1.33
2022-10-11T16:59:39.411Z,2.30
2022-10-11T17:02:07.170Z,3.22
2022-10-11T17:04:33.901Z,2.55
2022-10-11T17:07:00.534Z,3.03
2022-10-11T17:09:26.981Z,2.78
2022-10-11T17:11:53.517Z,2.90
2022-10-11T17:14:21.694Z,2.95
2022-10-11T17:16:48.194Z,3.40
2022-10-11T17:19:15.822Z,4.60
2022-10-11T17:21:42.841Z,3.50
2022-10-11T17:24:09.479Z,4.32
2022-10-11T17:26:35.968Z,5.45
2022-10-11T17:29:02.864Z,4.57
2022-10-11T17:31:30.107Z,4.53
2022-10-11T17:34:00.599Z,4.70
2022-10-11T17:36:34.700Z,4.50
2022-10-11T17:39:04.660Z,4.00
2022-10-11T17:41:32.336Z,4.03
2022-10-11T17:43:59.560Z,3.60
2022-10-11T17:46:27.662Z,4.57
2022-10-11T17:48:55.570Z,6.05
2022-10-11T17:51:22.550Z,5.30
2022-10-11T17:53:50.906Z,4.68
2022-10-11T17:56:25.265Z,4.53
2022-10-11T17:58:55.991Z,2.88
2022-10-11T18:01:25.621Z,4.05
2022-10-11T18:03:57.606Z,3.67
2022-10-11T18:06:26.753Z,3.75
2022-10-11T18:08:53.224Z,3.70
2022-10-11T18:11:20.883Z,6.60
2022-10-11T18:13:49.074Z,6.07
2022-10-11T18:16:19.287Z,6.18
2022-10-11T18:18:45.899Z,4.75
2022-10-11T18:21:13.111Z,6.37
2022-10-11T18:23:40.247Z,6.07
2022-10-11T18:26:29.383Z,7.00
2022-10-11T18:28:56.812Z,6.50
2022-10-11T18:31:27.378Z,6.85
2022-10-11T18:33:54.902Z,27.03
2022-10-11T18:36:24.051Z,25.92
2022-10-11T18:38:54.989Z,23.13
2022-10-11T18:41:24.178Z,20.45
2022-10-11T18:43:53.699Z,16.23
2022-10-11T18:46:21.419Z,13.40
2022-10-11T18:48:51.532Z,11.27
2022-10-11T18:51:48.979Z,10.73
2022-10-11T18:54:20.044Z,9.10
2022-10-11T18:56:47.780Z,8.93
2022-10-11T18:59:14.600Z,8.10
2022-10-11T19:01:44.157Z,8.68
2022-10-11T19:04:12.954Z,15.10
2022-10-11T19:06:43.155Z,22.25
2022-10-11T19:09:17.578Z,28.92
2022-10-11T19:11:45.265Z,30.13
2022-10-11T19:14:15.134Z,30.98
2022-10-11T19:16:45.459Z,28.48
2022-10-11T19:19:12.884Z,25.52
2022-10-11T19:21:39.747Z,19.27
2022-10-11T19:24:06.704Z,21.53
2022-10-11T19:26:36.791Z,19.52
2022-10-11T19:29:08.081Z,21.50
2022-10-11T19:31:37.262Z,24.90
2022-10-11T19:34:03.778Z,20.25
2022-10-11T19:36:35.522Z,20.27
2022-10-11T19:39:03.972Z,19.52
2022-10-11T19:41:30.418Z,20.73
2022-10-11T19:43:58.236Z,21.50
2022-10-11T19:46:50.348Z,19.27
2022-10-11T19:49:13.966Z,15.47
2022-10-11T19:51:40.394Z,15.60
2022-10-11T19:54:16.390Z,13.63
2022-10-11T19:56:44.484Z,14.73
2022-10-11T19:59:12.382Z,13.50
2022-10-11T20:01:40.078Z,13.57
2022-10-11T20:04:09.038Z,14.90
2022-10-11T20:06:39.086Z,15.45
2022-10-11T20:09:28.421Z,14.20
2022-10-11T20:11:55.805Z,17.70
2022-10-11T20:14:22.378Z,26.33
2022-10-11T20:16:50.193Z,24.35
2022-10-11T20:19:17.132Z,24.23
2022-10-11T20:21:43.971Z,22.58
2022-10-11T20:24:10.403Z,18.42
2022-10-11T20:26:36.839Z,17.43
2022-10-11T20:29:03.412Z,20.95
2022-10-11T20:31:32.989Z,28.38
2022-10-11T20:34:02.129Z,29.13
2022-10-11T20:36:30.129Z,26.73
2022-10-11T20:38:58.466Z,22.87
2022-10-11T20:41:28.334Z,20.48
2022-10-11T20:43:56.799Z,16.98
2022-10-11T20:46:25.470Z,16.15
2022-10-11T20:49:00.411Z,15.70
2022-10-11T20:51:29.431Z,15.03
2022-10-11T20:53:56.433Z,13.77
2022-10-11T20:56:23.124Z,13.68
2022-10-11T20:58:56.453Z,13.07
2022-10-11T21:01:29.082Z,12.95
2022-10-11T21:03:57.698Z,12.97
2022-10-11T21:06:24.317Z,13.35
2022-10-11T21:08:50.861Z,12.00
2022-10-11T21:11:17.319Z,12.65
2022-10-11T21:13:43.803Z,11.45
2022-10-11T21:16:15.163Z,12.43
2022-10-11T21:18:41.715Z,12.35
2022-10-11T21:21:10.814Z,12.57
2022-10-11T21:23:37.614Z,11.00
2022-10-11T21:26:06.498Z,13.15
2022-10-11T21:28:33.074Z,12.37
2022-10-11T21:31:10.127Z,12.18
2022-10-11T21:33:37.514Z,11.02
2022-10-11T21:36:09.431Z,10.88
2022-10-11T21:38:36.717Z,10.40
2022-10-11T21:41:08.461Z,10.77
2022-10-11T21:43:36.102Z,10.85
2022-10-11T21:46:15.939Z,12.95
2022-10-11T21:48:42.617Z,13.00
2022-10-11T21:53:46.117Z,10.53
2022-10-11T21:56:12.585Z,10.65
2022-10-11T21:58:39.062Z,11.30
2022-10-11T22:01:06.045Z,11.45
2022-10-11T22:03:32.571Z,12.18
2022-10-11T22:06:02.467Z,12.30
2022-10-11T22:08:29.536Z,13.48
2022-10-11T22:10:58.777Z,13.18
2022-10-11T22:13:26.922Z,12.57
2022-10-11T22:15:56.185Z,12.35
2022-10-11T22:18:23.582Z,11.23
2022-10-11T22:20:50.757Z,11.57
2022-10-11T22:23:18.957Z,10.60
2022-10-11T22:25:45.953Z,9.95
2022-10-11T22:28:12.676Z,10.43
2022-10-11T22:30:39.181Z,9.43
2022-10-11T22:33:05.578Z,10.15
2022-10-11T22:35:37.230Z,10.00
2022-10-11T22:38:06.155Z,9.10
2022-10-11T22:40:32.765Z,9.55
2022-10-11T22:42:59.154Z,8.80
2022-10-11T22:45:25.561Z,9.18
2022-10-11T22:47:51.966Z,9.55
2022-10-11T22:50:18.362Z,9.43
2022-10-11T22:52:44.777Z,8.23
2022-10-11T22:55:12.579Z,7.40
2022-10-11T22:57:40.555Z,7.38
2022-10-11T23:00:07.700Z,6.82
2022-10-11T23:02:34.222Z,7.85
2022-10-11T23:05:00.626Z,7.30
2022-10-11T23:07:27.027Z,6.80
2022-10-11T23:09:53.416Z,6.68
2022-10-11T23:12:19.840Z,6.22
2022-10-11T23:14:46.243Z,6.28
2022-10-11T23:17:12.657Z,6.05
2022-10-11T23:19:39.150Z,5.97
2022-10-11T23:22:05.579Z,5.82
2022-10-11T23:24:32.005Z,5.22
2022-10-11T23:26:58.453Z,5.30
2022-10-11T23:29:24.887Z,5.80
2022-10-11T23:31:51.644Z,4.27
2022-10-11T23:34:18.049Z,5.25
2022-10-11T23:36:44.454Z,4.53
2022-10-11T23:39:11.171Z,5.07
2022-10-11T23:41:37.807Z,4.82
2022-10-11T23:44:04.322Z,4.63
2022-10-11T23:46:30.783Z,4.50
2022-10-11T23:48:57.236Z,4.15
2022-10-11T23:51:23.667Z,4.60
2022-10-11T23:53:50.214Z,4.28
2022-10-11T23:56:16.798Z,4.37
2022-10-11T23:58:43.172Z,5.07
